PATA/TAL METAR and TAF weather

Enter ICAO airport designator
Station Type Date Time Source
PATA METAR 2019/08/24 07:52 UTC NOAA

PATA 240752Z AUTO 35003KT 10SM FEW070 04/02 A2966 RMK AO2 SLP045 T00390022 TSNO


Station Type Date Time Source
PATA Decoded METAR 2019/08/24 07:52 UTC NOAA

Station name not available
Aug 24, 2019 - 03:52 AM EDT / 2019.08.24 0752 UTC
Wind: from the N (350 degrees) at 3 MPH (3 KT):0
Visibility: 10 mile(s):0
Sky conditions: mostly clear
Temperature: 39.0 F (3.9 C)
Dew Point: 36.0 F (2.2 C)
Relative Humidity: 88%
Pressure (altimeter): 29.66 in. Hg (1004 hPa)
ob: PATA 240752Z AUTO 35003KT 10SM FEW070 04/02 A2966 RMK AO2 SLP045 T00390022 TSNO
cycle: 8

Station Type Date Time Source
PATA TAF 2019/08/24 06:22 UTC NOAA

TAF PATA 240520Z 2406/2506 VRB04KT P6SM FEW080 SCT250

Example: see airport list